Cardiff-Wales, United Kingdom

4:59 AM BST on October 01, 2016 (GMT +0100)
Cardiff | | Change Station

Elev 220 ft 51.40 °N, 3.34 °W | Updated 9 minutes ago

Light Rain
Light Rain
54 °F
Feels Like 54 °F
N
10
Wind Variable Wind from South

Today
High -- | Low -- °F
--% Chance of Precip.
Yesterday
High -- | Low -- °F
Precip. -- in
Pressure 29.65 in
Visibility 6.2 miles
Clouds Few 2100 ft
Overcast 3600 ft
Dew Point 48 °F
Humidity 82%
Rainfall 0.00 in
Snow Depth Not available.
7:14 AM 6:50 PM
New Moon, 0% visible
METAR EGFF 010350Z AUTO 18009KT 9999 -RA FEW021/// OVC036/// //////TCU 12/09 Q1004
Pressure 29.65 in
Visibility 6.2 miles
Clouds Few 2100 ft
Overcast 3600 ft
Dew Point 48 °F
Humidity 82%
Rainfall 0.00 in
Snow Depth Not available.
7:14 AM 6:50 PM
New Moon, 0% visible
METAR EGFF 010350Z AUTO 18009KT 9999 -RA FEW021/// OVC036/// //////TCU 12/09 Q1004

10-Day Weather Forecast

×

Almanac

Astronomy

Oct. 01, 2016 Rise Set
Actual Time
Civil Twilight
Nautical Twilight
Astronomical Twilight
Moon
Length of Visible Light
Length of Day
Tomorrow will be .
, % of the Moon is Illuminated

Today's Extremes

Country Highs Country Lows

Community

WunderPhotos

Upload Photos

1,942,885 photos uploaded!

WunderBlog® & News

Nearby

Air Quality

  Air Quality AQ Index Pollutant
Not available.

Snow Depth

Station Depth Elevation

Earthquake Activity

City Distance Mag. Time & Date
Minimum magnitude displayed is 2.5.

Coastal Water Temperatures

Place Temperature

Stations

Nearby Weather Stations

Station Location Temp. Windchill Dew Point Humidity Wind Precip. Elev Updated Type